sensor_id;sensor_type;location;lat;lon;timestamp;pressure;altitude;pressure_sealevel;temperature;humidity
7018;BME280;3549;42.162;24.726;2022-09-01T00:02:13;98941.16;;;20.15;100.00
7018;BME280;3549;42.162;24.726;2022-09-01T00:04:41;98859.03;;;19.59;100.00
7018;BME280;3549;42.162;24.726;2022-09-01T00:07:09;98872.69;;;19.70;100.00
7018;BME280;3549;42.162;24.726;2022-09-01T00:09:35;98699.09;;;18.67;100.00
7018;BME280;3549;42.162;24.726;2022-09-01T00:12:03;98931.75;;;20.05;100.00
7018;BME280;3549;42.162;24.726;2022-09-01T00:14:32;98879.56;;;19.83;100.00
7018;BME280;3549;42.162;24.726;2022-09-01T00:17:00;98887.25;;;19.71;100.00
7018;BME280;3549;42.162;24.726;2022-09-01T00:19:26;98766.63;;;19.04;100.00
7018;BME280;3549;42.162;24.726;2022-09-01T00:21:54;98707.66;;;18.75;100.00
7018;BME280;3549;42.162;24.726;2022-09-01T00:24:20;98810.25;;;19.53;100.00
7018;BME280;3549;42.162;24.726;2022-09-01T00:26:46;98870.97;;;19.90;100.00
7018;BME280;3549;42.162;24.726;2022-09-01T00:29:12;98922.34;;;20.05;100.00
7018;BME280;3549;42.162;24.726;2022-09-01T00:31:38;98920.63;;;20.10;100.00
7018;BME280;3549;42.162;24.726;2022-09-01T00:34:04;98687.97;;;18.71;100.00
7018;BME280;3549;42.162;24.726;2022-09-01T00:36:29;98850.47;;;19.54;100.00
7018;BME280;3549;42.162;24.726;2022-09-01T00:38:55;98876.16;;;19.63;100.00
7018;BME280;3549;42.162;24.726;2022-09-01T00:41:24;98939.47;;;19.98;100.00
7018;BME280;3549;42.162;24.726;2022-09-01T00:44:03;98937.78;;;19.90;100.00
7018;BME280;3549;42.162;24.726;2022-09-01T00:46:39;98933.47;;;19.89;100.00
7018;BME280;3549;42.162;24.726;2022-09-01T00:49:07;98864.16;;;19.36;100.00
7018;BME280;3549;42.162;24.726;2022-09-01T00:51:35;98889.00;;;19.45;100.00
7018;BME280;3549;42.162;24.726;2022-09-01T00:54:04;98918.03;;;19.31;100.00
7018;BME280;3549;42.162;24.726;2022-09-01T00:56:31;98657.09;;;17.85;100.00
7018;BME280;3549;42.162;24.726;2022-09-01T00:58:59;98918.03;;;19.37;100.00
7018;BME280;3549;42.162;24.726;2022-09-01T01:01:25;98930.91;;;19.59;100.00
7018;BME280;3549;42.162;24.726;2022-09-01T01:03:50;98803.38;;;18.82;100.00
7018;BME280;3549;42.162;24.726;2022-09-01T01:06:17;98891.50;;;19.13;100.00
7018;BME280;3549;42.162;24.726;2022-09-01T01:08:46;98935.22;;;19.38;100.00
7018;BME280;3549;42.162;24.726;2022-09-01T01:11:24;98890.63;;;19.05;100.00
7018;BME280;3549;42.162;24.726;2022-09-01T01:13:56;98934.34;;;19.39;100.00
7018;BME280;3549;42.162;24.726;2022-09-01T01:16:24;98936.91;;;19.38;100.00
7018;BME280;3549;42.162;24.726;2022-09-01T01:18:50;98857.13;;;18.49;100.00
7018;BME280;3549;42.162;24.726;2022-09-01T01:21:28;98575.56;;;16.77;100.00
7018;BME280;3549;42.162;24.726;2022-09-01T01:24:22;98919.59;;;18.66;100.00
7018;BME280;3549;42.162;24.726;2022-09-01T01:26:48;98897.31;;;18.53;100.00
7018;BME280;3549;42.162;24.726;2022-09-01T01:29:14;98859.59;;;18.23;100.00
7018;BME280;3549;42.162;24.726;2022-09-01T01:31:40;98864.69;;;18.17;100.00
7018;BME280;3549;42.162;24.726;2022-09-01T01:34:05;98803.78;;;17.63;100.00
7018;BME280;3549;42.162;24.726;2022-09-01T01:36:34;98788.44;;;17.71;100.00
7018;BME280;3549;42.162;24.726;2022-09-01T01:39:12;98920.41;;;18.51;100.00
7018;BME280;3549;42.162;24.726;2022-09-01T01:41:39;98925.59;;;18.65;100.00
7018;BME280;3549;42.162;24.726;2022-09-01T01:44:10;98879.31;;;18.45;100.00
7018;BME280;3549;42.162;24.726;2022-09-01T01:46:40;98770.47;;;17.60;100.00
7018;BME280;3549;42.162;24.726;2022-09-01T01:49:07;98902.47;;;18.51;100.00
7018;BME280;3549;42.162;24.726;2022-09-01T01:51:33;98720.91;;;17.52;100.00
7018;BME280;3549;42.162;24.726;2022-09-01T01:53:58;98673.88;;;17.29;100.00
7018;BME280;3549;42.162;24.726;2022-09-01T01:56:26;98777.47;;;17.94;100.00
7018;BME280;3549;42.162;24.726;2022-09-01T01:58:53;98923.13;;;19.04;100.00
7018;BME280;3549;42.162;24.726;2022-09-01T02:01:22;98932.56;;;19.17;100.00
7018;BME280;3549;42.162;24.726;2022-09-01T02:03:50;98837.56;;;18.70;100.00
7018;BME280;3549;42.162;24.726;2022-09-01T02:06:19;98605.66;;;17.34;100.00
7018;BME280;3549;42.162;24.726;2022-09-01T02:08:49;98931.72;;;19.21;100.00
7018;BME280;3549;42.162;24.726;2022-09-01T02:11:16;98920.59;;;19.21;100.00
7018;BME280;3549;42.162;24.726;2022-09-01T02:13:42;98932.56;;;19.11;100.00
7018;BME280;3549;42.162;24.726;2022-09-01T02:16:09;98851.22;;;18.69;100.00
7018;BME280;3549;42.162;24.726;2022-09-01T02:18:41;98826.41;;;18.58;100.00
7018;BME280;3549;42.162;24.726;2022-09-01T02:21:10;98881.22;;;19.02;100.00
7018;BME280;3549;42.162;24.726;2022-09-01T02:23:38;98942.91;;;19.38;100.00
7018;BME280;3549;42.162;24.726;2022-09-01T02:26:04;98859.81;;;18.80;100.00
7018;BME280;3549;42.162;24.726;2022-09-01T02:28:32;98937.72;;;19.14;100.00
7018;BME280;3549;42.162;24.726;2022-09-01T02:30:59;98497.94;;;16.63;100.00
7018;BME280;3549;42.162;24.726;2022-09-01T02:33:27;98938.56;;;19.13;100.00
7018;BME280;3549;42.162;24.726;2022-09-01T02:35:55;98933.41;;;19.15;100.00
7018;BME280;3549;42.162;24.726;2022-09-01T02:38:21;98870.03;;;18.71;100.00
7018;BME280;3549;42.162;24.726;2022-09-01T02:40:50;98929.09;;;18.90;100.00
7018;BME280;3549;42.162;24.726;2022-09-01T02:43:18;98815.13;;;18.15;100.00
7018;BME280;3549;42.162;24.726;2022-09-01T02:45:46;98531.84;;;16.36;100.00
7018;BME280;3549;42.162;24.726;2022-09-01T02:48:12;98591.44;;;16.36;100.00
7018;BME280;3549;42.162;24.726;2022-09-01T02:50:39;98923.72;;;18.40;100.00
7018;BME280;3549;42.162;24.726;2022-09-01T02:53:06;98736.88;;;17.13;100.00
7018;BME280;3549;42.162;24.726;2022-09-01T02:55:37;98932.09;;;18.13;100.00
7018;BME280;3549;42.162;24.726;2022-09-01T02:58:03;98758.31;;;17.29;100.00
7018;BME280;3549;42.162;24.726;2022-09-01T03:00:29;98880.91;;;18.19;100.00
7018;BME280;3549;42.162;24.726;2022-09-01T03:02:59;98932.38;;;18.55;100.00
7018;BME280;3549;42.162;24.726;2022-09-01T03:05:28;98867.28;;;18.27;100.00
7018;BME280;3549;42.162;24.726;2022-09-01T03:08:03;98904.09;;;18.45;100.00
7018;BME280;3549;42.162;24.726;2022-09-01T03:10:32;98879.22;;;18.18;100.00
7018;BME280;3549;42.162;24.726;2022-09-01T03:13:02;98928.88;;;18.44;100.00
7018;BME280;3549;42.162;24.726;2022-09-01T03:15:28;98785.78;;;17.55;100.00
7018;BME280;3549;42.162;24.726;2022-09-01T03:17:54;98889.41;;;18.13;100.00
7018;BME280;3549;42.162;24.726;2022-09-01T03:20:23;98775.41;;;17.39;100.00
7018;BME280;3549;42.162;24.726;2022-09-01T03:22:49;98755.75;;;17.29;100.00
7018;BME280;3549;42.162;24.726;2022-09-01T03:25:16;98856.03;;;17.97;100.00
7018;BME280;3549;42.162;24.726;2022-09-01T03:27:43;98941.66;;;18.40;100.00
7018;BME280;3549;42.162;24.726;2022-09-01T03:30:09;98906.44;;;18.05;100.00
7018;BME280;3549;42.162;24.726;2022-09-01T03:32:35;98943.34;;;18.33;100.00
7018;BME280;3549;42.162;24.726;2022-09-01T03:35:01;98814.84;;;17.57;100.00
7018;BME280;3549;42.162;24.726;2022-09-01T03:37:26;98832.84;;;17.76;100.00
7018;BME280;3549;42.162;24.726;2022-09-01T03:39:52;98947.66;;;18.42;100.00
7018;BME280;3549;42.162;24.726;2022-09-01T03:42:19;98898.75;;;18.05;100.00
7018;BME280;3549;42.162;24.726;2022-09-01T03:44:50;98938.38;;;18.56;100.00
7018;BME280;3549;42.162;24.726;2022-09-01T03:47:16;98877.56;;;18.34;100.00
7018;BME280;3549;42.162;24.726;2022-09-01T03:49:42;98928.97;;;18.56;100.00
7018;BME280;3549;42.162;24.726;2022-09-01T03:52:10;98850.16;;;18.14;100.00
7018;BME280;3549;42.162;24.726;2022-09-01T03:54:36;98912.69;;;18.48;100.00
7018;BME280;3549;42.162;24.726;2022-09-01T03:57:02;98872.34;;;18.12;100.00
7018;BME280;3549;42.162;24.726;2022-09-01T03:59:30;98952.06;;;18.59;100.00
7018;BME280;3549;42.162;24.726;2022-09-01T04:01:56;98871.25;;;17.71;100.00
7018;BME280;3549;42.162;24.726;2022-09-01T04:04:22;98916.59;;;17.89;100.00
7018;BME280;3549;42.162;24.726;2022-09-01T04:06:47;98913.13;;;17.79;100.00
7018;BME280;3549;42.162;24.726;2022-09-01T04:09:13;98795.66;;;17.05;100.00
7018;BME280;3549;42.162;24.726;2022-09-01T04:11:39;98811.13;;;17.19;100.00
7018;BME280;3549;42.162;24.726;2022-09-01T04:14:08;98832.50;;;17.29;100.00
7018;BME280;3549;42.162;24.726;2022-09-01T04:16:34;98836.81;;;17.34;100.00
7018;BME280;3549;42.162;24.726;2022-09-01T04:19:22;98904.66;;;17.92;100.00
7018;BME280;3549;42.162;24.726;2022-09-01T04:22:00;98753.03;;;17.09;100.00
7018;BME280;3549;42.162;24.726;2022-09-01T04:24:28;98940.75;;;18.25;100.00
7018;BME280;3549;42.162;24.726;2022-09-01T04:26:56;98843.16;;;17.86;100.00
7018;BME280;3549;42.162;24.726;2022-09-01T04:29:23;98785.88;;;17.67;100.00
7018;BME280;3549;42.162;24.726;2022-09-01T04:32:00;98944.34;;;18.62;100.00
7018;BME280;3549;42.162;24.726;2022-09-01T04:34:27;98839.66;;;17.72;100.00
7018;BME280;3549;42.162;24.726;2022-09-01T04:36:53;98945.91;;;18.32;100.00
7018;BME280;3549;42.162;24.726;2022-09-01T04:39:21;98783.13;;;17.45;100.00
7018;BME280;3549;42.162;24.726;2022-09-01T04:41:47;98940.84;;;18.45;100.00
7018;BME280;3549;42.162;24.726;2022-09-01T04:44:13;98856.03;;;17.98;100.00
7018;BME280;3549;42.162;24.726;2022-09-01T04:46:41;98946.03;;;18.54;100.00
7018;BME280;3549;42.162;24.726;2022-09-01T04:49:11;98952.13;;;18.79;100.00
7018;BME280;3549;42.162;24.726;2022-09-01T04:51:42;98934.19;;;18.82;100.00
7018;BME280;3549;42.162;24.726;2022-09-01T04:54:09;98895.66;;;18.68;100.00
7018;BME280;3549;42.162;24.726;2022-09-01T04:56:40;98959.03;;;19.00;100.00
7018;BME280;3549;42.162;24.726;2022-09-01T04:59:07;98958.25;;;19.22;100.00
7018;BME280;3549;42.162;24.726;2022-09-01T05:01:35;98863.13;;;18.49;100.00
7018;BME280;3549;42.162;24.726;2022-09-01T05:04:19;98933.31;;;18.75;100.00
7018;BME280;3549;42.162;24.726;2022-09-01T05:06:50;98900.00;;;18.89;100.00
7018;BME280;3549;42.162;24.726;2022-09-01T05:09:19;98908.53;;;18.82;100.00
7018;BME280;3549;42.162;24.726;2022-09-01T05:11:45;98801.56;;;18.37;100.00
7018;BME280;3549;42.162;24.726;2022-09-01T05:14:12;98912.88;;;19.00;100.00
7018;BME280;3549;42.162;24.726;2022-09-01T05:16:38;98954.88;;;19.42;100.00
7018;BME280;3549;42.162;24.726;2022-09-01T05:19:08;98907.78;;;19.22;100.00
7018;BME280;3549;42.162;24.726;2022-09-01T05:21:47;98948.06;;;19.60;100.00
7018;BME280;3549;42.162;24.726;2022-09-01T05:24:16;98948.91;;;19.74;100.00
7018;BME280;3549;42.162;24.726;2022-09-01T05:26:43;98947.19;;;19.56;100.00
7018;BME280;3549;42.162;24.726;2022-09-01T05:29:12;98892.38;;;19.24;100.00
7018;BME280;3549;42.162;24.726;2022-09-01T05:31:41;98928.38;;;19.54;100.00
7018;BME280;3549;42.162;24.726;2022-09-01T05:34:08;98895.84;;;19.47;100.00
7018;BME280;3549;42.162;24.726;2022-09-01T05:36:36;98850.47;;;19.40;100.00
7018;BME280;3549;42.162;24.726;2022-09-01T05:39:04;98653.75;;;18.44;100.00
7018;BME280;3549;42.162;24.726;2022-09-01T05:41:30;98942.88;;;20.32;100.00
7018;BME280;3549;42.162;24.726;2022-09-01T05:43:57;98902.56;;;20.37;100.00
7018;BME280;3549;42.162;24.726;2022-09-01T05:46:24;98893.13;;;20.45;99.40
7018;BME280;3549;42.162;24.726;2022-09-01T05:48:53;98762.22;;;19.88;98.48
7018;BME280;3549;42.162;24.726;2022-09-01T05:51:21;98979.22;;;21.52;97.11
7018;BME280;3549;42.162;24.726;2022-09-01T05:53:51;98974.84;;;21.62;95.46
7018;BME280;3549;42.162;24.726;2022-09-01T06:32:15;98625.22;;;20.95;83.12
7018;BME280;3549;42.162;24.726;2022-09-01T06:34:42;98978.50;;;23.12;83.30
7018;BME280;3549;42.162;24.726;2022-09-01T06:37:16;98946.97;;;22.90;83.63
7018;BME280;3549;42.162;24.726;2022-09-01T06:39:47;98870.13;;;23.07;81.47
7018;BME280;3549;42.162;24.726;2022-09-01T06:42:12;98846.19;;;22.95;79.89
7018;BME280;3549;42.162;24.726;2022-09-01T06:44:39;98930.78;;;23.90;78.83
7018;BME280;3549;42.162;24.726;2022-09-01T06:47:05;98877.16;;;23.53;79.34
7018;BME280;3549;42.162;24.726;2022-09-01T06:49:31;98626.84;;;22.38;78.15
7018;BME280;3549;42.162;24.726;2022-09-01T06:52:03;98757.41;;;22.45;79.40
7018;BME280;3549;42.162;24.726;2022-09-01T06:54:29;98361.22;;;20.09;79.63
7018;BME280;3549;42.162;24.726;2022-09-01T06:57:00;98962.59;;;23.97;79.18
7018;BME280;3549;42.162;24.726;2022-09-01T06:59:29;98664.94;;;22.74;78.27
7018;BME280;3549;42.162;24.726;2022-09-01T07:01:56;98775.06;;;23.27;78.43
7018;BME280;3549;42.162;24.726;2022-09-01T07:04:29;98977.44;;;24.81;77.63
7018;BME280;3549;42.162;24.726;2022-09-01T07:06:55;98776.59;;;23.42;77.86
7018;BME280;3549;42.162;24.726;2022-09-01T07:09:22;98880.44;;;24.13;79.07
7018;BME280;3549;42.162;24.726;2022-09-01T07:11:51;98985.06;;;25.28;77.23
7018;BME280;3549;42.162;24.726;2022-09-01T07:14:24;98721.47;;;23.84;76.61
7018;BME280;3549;42.162;24.726;2022-09-01T07:16:55;98250.31;;;20.99;76.06
7018;BME280;3549;42.162;24.726;2022-09-01T07:19:26;98435.75;;;22.04;76.64
7018;BME280;3549;42.162;24.726;2022-09-01T07:21:58;98600.78;;;23.46;75.49
7018;BME280;3549;42.162;24.726;2022-09-01T07:24:29;98587.50;;;23.65;74.39
7018;BME280;3549;42.162;24.726;2022-09-01T07:27:00;98864.38;;;25.55;73.76
7018;BME280;3549;42.162;24.726;2022-09-01T07:29:29;98606.28;;;23.73;73.54
7018;BME280;3549;42.162;24.726;2022-09-01T07:31:55;98465.00;;;22.94;72.78
7018;BME280;3549;42.162;24.726;2022-09-01T07:34:24;98393.38;;;22.62;73.32
7018;BME280;3549;42.162;24.726;2022-09-01T07:36:51;98522.41;;;23.84;70.54
7018;BME280;3549;42.162;24.726;2022-09-01T07:39:23;98830.28;;;25.35;72.18
7018;BME280;3549;42.162;24.726;2022-09-01T07:41:48;98766.53;;;25.28;70.60
7018;BME280;3549;42.162;24.726;2022-09-01T07:44:13;98772.78;;;25.85;69.42
7018;BME280;3549;42.162;24.726;2022-09-01T07:46:40;98832.47;;;26.17;68.94
7018;BME280;3549;42.162;24.726;2022-09-01T07:49:06;98873.13;;;26.77;67.68
7018;BME280;3549;42.162;24.726;2022-09-01T07:51:31;98861.66;;;26.84;66.12
7018;BME280;3549;42.162;24.726;2022-09-01T07:53:59;98952.63;;;27.69;66.27
7018;BME280;3549;42.162;24.726;2022-09-01T07:56:27;98904.88;;;27.70;64.42
7018;BME280;3549;42.162;24.726;2022-09-01T07:58:55;98848.63;;;27.41;64.34
7018;BME280;3549;42.162;24.726;2022-09-01T08:01:24;98949.00;;;27.46;65.68
7018;BME280;3549;42.162;24.726;2022-09-01T08:03:53;98953.91;;;27.82;65.14
7018;BME280;3549;42.162;24.726;2022-09-01T08:06:21;98962.78;;;28.02;64.34
7018;BME280;3549;42.162;24.726;2022-09-01T08:08:49;98849.19;;;26.95;64.08
7018;BME280;3549;42.162;24.726;2022-09-01T08:11:21;98937.19;;;27.07;65.72
7018;BME280;3549;42.162;24.726;2022-09-01T08:13:50;98815.53;;;26.63;64.72
7018;BME280;3549;42.162;24.726;2022-09-01T08:16:16;98839.84;;;27.70;62.72
7018;BME280;3549;42.162;24.726;2022-09-01T08:18:42;98947.81;;;28.09;61.77
7018;BME280;3549;42.162;24.726;2022-09-01T08:21:11;98941.28;;;28.22;62.33
7018;BME280;3549;42.162;24.726;2022-09-01T08:23:37;98952.81;;;28.64;60.15
7018;BME280;3549;42.162;24.726;2022-09-01T08:26:05;98892.84;;;28.88;58.23
7018;BME280;3549;42.162;24.726;2022-09-01T08:28:31;98931.56;;;29.20;57.24
7018;BME280;3549;42.162;24.726;2022-09-01T08:30:57;98968.78;;;29.02;57.66
7018;BME280;3549;42.162;24.726;2022-09-01T08:33:25;98929.09;;;29.17;57.41
7018;BME280;3549;42.162;24.726;2022-09-01T08:35:51;98812.84;;;28.45;57.94
7018;BME280;3549;42.162;24.726;2022-09-01T08:38:19;98959.25;;;29.24;57.78
7018;BME280;3549;42.162;24.726;2022-09-01T08:40:58;98904.88;;;29.13;58.40
7018;BME280;3549;42.162;24.726;2022-09-01T08:46:15;98801.94;;;28.12;58.71
7018;BME280;3549;42.162;24.726;2022-09-01T08:48:47;98937.25;;;29.08;58.51
7018;BME280;3549;42.162;24.726;2022-09-01T08:51:20;98928.75;;;29.26;58.55
7018;BME280;3549;42.162;24.726;2022-09-01T08:57:00;98930.69;;;30.06;56.51
7018;BME280;3549;42.162;24.726;2022-09-01T08:59:26;98808.75;;;29.68;55.95
7018;BME280;3549;42.162;24.726;2022-09-01T09:05:14;98921.97;;;30.26;55.33
7018;BME280;3549;42.162;24.726;2022-09-01T09:14:03;98923.69;;;29.87;55.72
7018;BME280;3549;42.162;24.726;2022-09-01T09:16:36;98923.09;;;29.80;55.94
7018;BME280;3549;42.162;24.726;2022-09-01T09:19:07;98847.44;;;30.19;54.67
7018;BME280;3549;42.162;24.726;2022-09-01T09:21:38;98785.69;;;29.98;53.89
7018;BME280;3549;42.162;24.726;2022-09-01T09:27:31;98638.22;;;28.70;54.49
7018;BME280;3549;42.162;24.726;2022-09-01T09:30:00;98880.56;;;30.57;54.08
7018;BME280;3549;42.162;24.726;2022-09-01T09:37:52;98826.41;;;30.96;52.23
7018;BME280;3549;42.162;24.726;2022-09-01T09:40:22;98777.81;;;30.92;51.69
7018;BME280;3549;42.162;24.726;2022-09-01T09:45:26;98901.13;;;31.91;50.42
7018;BME280;3549;42.162;24.726;2022-09-01T09:47:54;98884.50;;;31.75;50.80
7018;BME280;3549;42.162;24.726;2022-09-01T09:50:42;98893.72;;;31.82;50.36
7018;BME280;3549;42.162;24.726;2022-09-01T09:55:58;98864.94;;;31.29;50.79
7018;BME280;3549;42.162;24.726;2022-09-01T09:58:28;98836.16;;;31.12;50.47
7018;BME280;3549;42.162;24.726;2022-09-01T10:04:00;98865.06;;;31.79;48.78
7018;BME280;3549;42.162;24.726;2022-09-01T10:06:40;98865.22;;;31.76;49.07
7018;BME280;3549;42.162;24.726;2022-09-01T10:11:55;98765.72;;;31.26;49.57
7018;BME280;3549;42.162;24.726;2022-09-01T10:14:36;98845.44;;;31.70;49.00
7018;BME280;3549;42.162;24.726;2022-09-01T10:17:30;98856.09;;;31.67;49.44
7018;BME280;3549;42.162;24.726;2022-09-01T10:20:02;98850.53;;;32.07;48.57
7018;BME280;3549;42.162;24.726;2022-09-01T10:22:33;98851.41;;;32.24;47.93
7018;BME280;3549;42.162;24.726;2022-09-01T10:25:00;98830.66;;;31.86;49.57
7018;BME280;3549;42.162;24.726;2022-09-01T10:27:29;98822.72;;;32.05;49.16
7018;BME280;3549;42.162;24.726;2022-09-01T10:32:35;98715.31;;;31.22;49.58
7018;BME280;3549;42.162;24.726;2022-09-01T10:35:03;98826.63;;;31.96;49.44
7018;BME280;3549;42.162;24.726;2022-09-01T10:37:30;98826.34;;;31.68;50.24
7018;BME280;3549;42.162;24.726;2022-09-01T10:42:42;98817.88;;;31.80;49.95
7018;BME280;3549;42.162;24.726;2022-09-01T10:45:37;98837.56;;;32.37;48.66
7018;BME280;3549;42.162;24.726;2022-09-01T10:50:48;98826.75;;;31.78;50.32
7018;BME280;3549;42.162;24.726;2022-09-01T11:04:16;98822.94;;;32.00;50.63
7018;BME280;3549;42.162;24.726;2022-09-01T11:06:54;98821.56;;;32.10;50.00
7018;BME280;3549;42.162;24.726;2022-09-01T11:12:18;98809.66;;;32.36;50.41
7018;BME280;3549;42.162;24.726;2022-09-01T11:14:48;98806.38;;;32.48;50.26
7018;BME280;3549;42.162;24.726;2022-09-01T11:17:37;98782.63;;;32.51;49.68
7018;BME280;3549;42.162;24.726;2022-09-01T11:20:30;98747.09;;;31.82;49.67
7018;BME280;3549;42.162;24.726;2022-09-01T11:23:02;98803.34;;;31.75;49.64
7018;BME280;3549;42.162;24.726;2022-09-01T11:25:35;98787.38;;;31.79;49.50
7018;BME280;3549;42.162;24.726;2022-09-01T11:28:34;98796.28;;;32.25;49.11
7018;BME280;3549;42.162;24.726;2022-09-01T11:34:01;98735.19;;;31.76;50.10
7018;BME280;3549;42.162;24.726;2022-09-01T11:44:22;98791.03;;;33.49;46.50
7018;BME280;3549;42.162;24.726;2022-09-01T11:46:50;98758.31;;;33.84;45.52
7018;BME280;3549;42.162;24.726;2022-09-01T11:49:32;98695.53;;;33.65;44.75
7018;BME280;3549;42.162;24.726;2022-09-01T11:51:59;98789.81;;;34.69;43.29
7018;BME280;3549;42.162;24.726;2022-09-01T11:54:27;98785.22;;;34.85;42.10
7018;BME280;3549;42.162;24.726;2022-09-01T11:56:53;98740.72;;;34.82;41.26
7018;BME280;3549;42.162;24.726;2022-09-01T11:59:32;98782.22;;;35.30;40.34
7018;BME280;3549;42.162;24.726;2022-09-01T12:01:59;98675.13;;;34.66;39.93
7018;BME280;3549;42.162;24.726;2022-09-01T12:04:30;98762.72;;;35.60;39.44
7018;BME280;3549;42.162;24.726;2022-09-01T12:07:11;98738.81;;;35.63;38.62
7018;BME280;3549;42.162;24.726;2022-09-01T12:09:41;98762.72;;;35.60;38.83
7018;BME280;3549;42.162;24.726;2022-09-01T12:12:26;98749.63;;;35.58;38.41
7018;BME280;3549;42.162;24.726;2022-09-01T12:15:22;98753.38;;;35.29;38.54
7018;BME280;3549;42.162;24.726;2022-09-01T12:17:46;98736.03;;;34.73;38.86
7018;BME280;3549;42.162;24.726;2022-09-01T12:22:43;98719.72;;;35.59;37.34
7018;BME280;3549;42.162;24.726;2022-09-01T12:25:18;98746.41;;;36.65;35.56
7018;BME280;3549;42.162;24.726;2022-09-01T12:27:44;98740.34;;;36.76;35.49
7018;BME280;3549;42.162;24.726;2022-09-01T12:30:10;98738.66;;;36.51;34.52
7018;BME280;3549;42.162;24.726;2022-09-01T12:32:37;98695.84;;;36.11;34.88
7018;BME280;3549;42.162;24.726;2022-09-01T12:35:09;98674.53;;;36.50;34.26
7018;BME280;3549;42.162;24.726;2022-09-01T12:37:42;98724.97;;;36.09;34.34
7018;BME280;3549;42.162;24.726;2022-09-01T12:40:23;98732.00;;;36.58;34.58
7018;BME280;3549;42.162;24.726;2022-09-01T12:42:51;98735.31;;;36.96;32.65
7018;BME280;3549;42.162;24.726;2022-09-01T12:45:38;98723.16;;;37.63;31.37
7018;BME280;3549;42.162;24.726;2022-09-01T12:48:04;98732.78;;;38.20;31.08
7018;BME280;3549;42.162;24.726;2022-09-01T12:52:59;98708.84;;;37.20;31.62
7018;BME280;3549;42.162;24.726;2022-09-01T12:55:34;98684.00;;;35.68;32.78
7018;BME280;3549;42.162;24.726;2022-09-01T12:58:08;98723.72;;;35.65;34.10
7018;BME280;3549;42.162;24.726;2022-09-01T13:00:36;98714.94;;;36.38;32.33
7018;BME280;3549;42.162;24.726;2022-09-01T13:03:17;98706.94;;;37.11;31.62
7018;BME280;3549;42.162;24.726;2022-09-01T13:05:56;98725.44;;;37.68;31.09
7018;BME280;3549;42.162;24.726;2022-09-01T13:08:31;98716.41;;;38.37;29.98
7018;BME280;3549;42.162;24.726;2022-09-01T13:11:02;98712.84;;;37.37;31.17
7018;BME280;3549;42.162;24.726;2022-09-01T13:13:28;98726.28;;;38.13;30.82
7018;BME280;3549;42.162;24.726;2022-09-01T13:15:56;98719.66;;;39.04;29.52
7018;BME280;3549;42.162;24.726;2022-09-01T13:18:26;98702.25;;;39.64;28.45
7018;BME280;3549;42.162;24.726;2022-09-01T13:20:53;98725.63;;;40.10;27.97
7018;BME280;3549;42.162;24.726;2022-09-01T13:23:19;98693.50;;;38.58;29.39
7018;BME280;3549;42.162;24.726;2022-09-01T13:25:45;98582.47;;;37.38;29.73
7018;BME280;3549;42.162;24.726;2022-09-01T13:28:15;98541.75;;;36.85;30.55
7018;BME280;3549;42.162;24.726;2022-09-01T13:30:42;98664.69;;;37.11;30.93
7018;BME280;3549;42.162;24.726;2022-09-01T13:33:09;98676.34;;;36.37;32.19
7018;BME280;3549;42.162;24.726;2022-09-01T13:35:37;98671.22;;;35.11;33.55
7018;BME280;3549;42.162;24.726;2022-09-01T13:38:03;98690.91;;;34.52;34.91
7018;BME280;3549;42.162;24.726;2022-09-01T13:40:29;98699.19;;;34.46;35.14
7018;BME280;3549;42.162;24.726;2022-09-01T13:42:54;98676.53;;;33.62;36.24
7018;BME280;3549;42.162;24.726;2022-09-01T13:45:22;98695.19;;;33.28;36.79
7018;BME280;3549;42.162;24.726;2022-09-01T13:47:49;98692.47;;;32.69;37.48
7018;BME280;3549;42.162;24.726;2022-09-01T13:50:17;98683.19;;;32.64;38.08
7018;BME280;3549;42.162;24.726;2022-09-01T13:52:47;98697.41;;;32.60;38.41
7018;BME280;3549;42.162;24.726;2022-09-01T13:55:15;98696.41;;;32.47;38.42
7018;BME280;3549;42.162;24.726;2022-09-01T13:57:41;98671.28;;;32.43;38.69
7018;BME280;3549;42.162;24.726;2022-09-01T14:00:15;98645.53;;;32.04;38.11
7018;BME280;3549;42.162;24.726;2022-09-01T14:02:44;98656.41;;;31.96;37.92
7018;BME280;3549;42.162;24.726;2022-09-01T14:05:29;98668.09;;;32.06;38.33
7018;BME280;3549;42.162;24.726;2022-09-01T14:07:55;98645.13;;;31.63;38.56
7018;BME280;3549;42.162;24.726;2022-09-01T14:10:22;98688.91;;;31.92;38.81
7018;BME280;3549;42.162;24.726;2022-09-01T14:12:48;98522.94;;;30.82;38.99
7018;BME280;3549;42.162;24.726;2022-09-01T14:15:15;98603.16;;;31.49;39.12
7018;BME280;3549;42.162;24.726;2022-09-01T14:17:42;98683.75;;;32.08;38.34
7018;BME280;3549;42.162;24.726;2022-09-01T14:20:11;98676.63;;;32.26;38.36
7018;BME280;3549;42.162;24.726;2022-09-01T14:22:38;98682.53;;;32.29;38.30
7018;BME280;3549;42.162;24.726;2022-09-01T14:25:06;98676.44;;;32.29;38.18
7018;BME280;3549;42.162;24.726;2022-09-01T14:27:32;98683.22;;;32.01;38.06
7018;BME280;3549;42.162;24.726;2022-09-01T14:29:57;98679.72;;;31.85;38.56
7018;BME280;3549;42.162;24.726;2022-09-01T14:32:23;98674.22;;;31.90;38.58
7018;BME280;3549;42.162;24.726;2022-09-01T14:34:54;98666.13;;;31.94;38.03
7018;BME280;3549;42.162;24.726;2022-09-01T14:37:20;98677.47;;;32.10;37.81
7018;BME280;3549;42.162;24.726;2022-09-01T14:39:49;98665.00;;;31.98;38.38
7018;BME280;3549;42.162;24.726;2022-09-01T14:42:15;98662.72;;;31.92;38.40
7018;BME280;3549;42.162;24.726;2022-09-01T14:44:41;98649.03;;;31.87;38.42
7018;BME280;3549;42.162;24.726;2022-09-01T14:47:07;98658.97;;;31.65;38.73
7018;BME280;3549;42.162;24.726;2022-09-01T14:49:34;98647.00;;;31.61;38.77
7018;BME280;3549;42.162;24.726;2022-09-01T14:52:04;98666.44;;;31.73;39.06
7018;BME280;3549;42.162;24.726;2022-09-01T14:54:35;98669.97;;;31.72;39.14
7018;BME280;3549;42.162;24.726;2022-09-01T14:57:01;98666.78;;;31.82;39.36
7018;BME280;3549;42.162;24.726;2022-09-01T14:59:27;98650.22;;;31.66;39.13
7018;BME280;3549;42.162;24.726;2022-09-01T15:01:53;98596.25;;;31.48;38.75
7018;BME280;3549;42.162;24.726;2022-09-01T15:04:18;98531.75;;;30.81;38.70
7018;BME280;3549;42.162;24.726;2022-09-01T15:06:43;98648.06;;;31.57;39.06
7018;BME280;3549;42.162;24.726;2022-09-01T15:09:09;98602.66;;;31.25;39.19